createdAt,value
2019-03-08T00:02:07.485Z,1.45
2019-03-08T00:04:34.592Z,2.37
2019-03-08T00:07:01.450Z,3.37
2019-03-08T00:09:28.520Z,2.77
2019-03-08T00:11:55.604Z,1.98
2019-03-08T00:14:23.661Z,1.47
2019-03-08T00:16:50.395Z,1.95
2019-03-08T00:19:17.371Z,2.75
2019-03-08T00:21:45.254Z,2.50
2019-03-08T00:24:12.259Z,3.27
2019-03-08T00:26:39.253Z,2.17
2019-03-08T00:29:10.592Z,3.17
2019-03-08T00:32:05.283Z,2.60
2019-03-08T00:34:36.383Z,2.80
2019-03-08T00:37:03.173Z,1.80
2019-03-08T00:39:30.429Z,2.40
2019-03-08T00:41:57.289Z,2.05
2019-03-08T00:44:24.367Z,2.10
2019-03-08T00:46:51.389Z,2.40
2019-03-08T00:49:18.322Z,1.52
2019-03-08T00:51:50.530Z,3.45
2019-03-08T00:54:17.471Z,5.42
2019-03-08T00:56:44.850Z,1.90
2019-03-08T00:59:11.845Z,3.08
2019-03-08T01:01:38.607Z,1.57
2019-03-08T01:04:07.670Z,2.40
2019-03-08T01:06:34.721Z,1.27
2019-03-08T01:09:04.748Z,2.40
2019-03-08T01:11:32.909Z,3.47
2019-03-08T01:14:01.697Z,2.87
2019-03-08T01:16:28.498Z,2.83
2019-03-08T01:18:55.804Z,1.65
2019-03-08T01:21:22.895Z,1.55
2019-03-08T01:23:50.159Z,2.27
2019-03-08T01:26:17.839Z,3.15
2019-03-08T01:28:45.645Z,2.33
2019-03-08T01:31:13.013Z,2.10
2019-03-08T01:33:40.215Z,3.67
2019-03-08T01:36:08.186Z,2.45
2019-03-08T01:38:35.114Z,2.45
2019-03-08T01:41:01.991Z,3.20
2019-03-08T01:43:28.888Z,4.05
2019-03-08T01:45:56.525Z,2.47
2019-03-08T01:48:31.478Z,1.52
2019-03-08T01:51:03.944Z,3.33
2019-03-08T01:53:42.641Z,2.08
2019-03-08T01:56:14.084Z,3.42
2019-03-08T01:58:40.970Z,3.20
2019-03-08T02:01:07.882Z,0.95
2019-03-08T02:03:34.784Z,1.22
2019-03-08T02:06:02.208Z,0.93
2019-03-08T02:08:29.328Z,1.12
2019-03-08T02:10:56.900Z,2.80
2019-03-08T02:13:23.785Z,1.12
2019-03-08T02:15:51.732Z,4.30
2019-03-08T02:18:19.486Z,1.12
2019-03-08T02:20:46.265Z,4.62
2019-03-08T02:23:13.579Z,2.55
2019-03-08T02:25:40.704Z,0.40
2019-03-08T02:28:10.078Z,4.00
2019-03-08T02:30:36.990Z,3.40
2019-03-08T02:33:03.992Z,1.42
2019-03-08T02:35:30.870Z,4.15
2019-03-08T02:37:57.753Z,1.75
2019-03-08T02:40:32.664Z,3.98
2019-03-08T02:43:01.820Z,1.90
2019-03-08T02:45:28.866Z,1.62
2019-03-08T02:47:55.919Z,2.22
2019-03-08T02:50:23.610Z,1.70
2019-03-08T02:52:50.752Z,1.87
2019-03-08T02:55:17.740Z,4.37
2019-03-08T02:57:44.917Z,3.47
2019-03-08T03:00:14.290Z,1.92
2019-03-08T03:02:41.921Z,2.40
2019-03-08T03:05:09.142Z,3.35
2019-03-08T03:07:35.922Z,2.87
2019-03-08T03:10:05.887Z,3.27
2019-03-08T03:12:34.997Z,4.30
2019-03-08T03:15:02.702Z,3.95
2019-03-08T03:17:29.472Z,2.75
2019-03-08T03:19:59.193Z,3.45
2019-03-08T03:22:25.980Z,2.17
2019-03-08T03:24:52.851Z,1.82
2019-03-08T03:27:19.687Z,2.17
2019-03-08T03:29:47.120Z,3.25
2019-03-08T03:32:14.342Z,4.25
2019-03-08T03:34:41.699Z,1.75
2019-03-08T03:37:08.896Z,0.60
2019-03-08T03:39:35.686Z,0.82
2019-03-08T03:42:03.231Z,1.72
2019-03-08T03:44:30.029Z,0.65
2019-03-08T03:46:57.120Z,2.10
2019-03-08T03:49:24.145Z,2.15
2019-03-08T03:51:51.086Z,1.77
2019-03-08T03:54:17.981Z,0.72
2019-03-08T03:56:44.837Z,2.17
2019-03-08T03:59:11.717Z,2.30
2019-03-08T04:01:40.350Z,2.72
2019-03-08T04:04:07.881Z,2.90
2019-03-08T04:06:34.637Z,1.60
2019-03-08T04:09:01.758Z,1.32
2019-03-08T04:11:28.513Z,4.00
2019-03-08T04:13:55.715Z,1.80
2019-03-08T04:16:22.683Z,1.85
2019-03-08T04:18:49.445Z,3.50
2019-03-08T04:21:16.523Z,2.17
2019-03-08T04:23:43.349Z,3.70
2019-03-08T04:26:10.111Z,2.58
2019-03-08T04:28:36.879Z,3.17
2019-03-08T04:31:03.847Z,1.80
2019-03-08T04:33:30.798Z,3.20
2019-03-08T04:35:57.643Z,1.20
2019-03-08T04:38:24.443Z,1.92
2019-03-08T04:40:51.526Z,1.92
2019-03-08T04:43:18.320Z,1.72
2019-03-08T04:45:45.628Z,3.80
2019-03-08T04:48:12.387Z,2.35
2019-03-08T04:50:39.355Z,1.57
2019-03-08T04:53:06.378Z,3.95
2019-03-08T04:55:33.615Z,2.62
2019-03-08T04:58:03.519Z,4.75
2019-03-08T05:00:30.393Z,3.10
2019-03-08T05:02:57.189Z,2.42
2019-03-08T05:05:23.995Z,1.67
2019-03-08T05:07:50.966Z,3.10
2019-03-08T05:10:19.941Z,2.60
2019-03-08T05:12:47.054Z,2.52
2019-03-08T05:15:15.084Z,3.95
2019-03-08T05:17:42.190Z,3.85
2019-03-08T05:20:10.201Z,3.02
2019-03-08T05:22:37.428Z,1.85
2019-03-08T05:25:11.758Z,3.25
2019-03-08T05:27:38.574Z,6.92
2019-03-08T05:30:10.887Z,6.03
2019-03-08T05:32:37.672Z,2.85
2019-03-08T05:35:07.004Z,1.52
2019-03-08T05:37:33.961Z,5.37
2019-03-08T05:40:00.814Z,3.42
2019-03-08T05:42:27.673Z,4.00
2019-03-08T05:44:55.720Z,2.70
2019-03-08T05:47:22.489Z,5.40
2019-03-08T05:49:49.625Z,2.70
2019-03-08T05:52:16.763Z,4.20
2019-03-08T05:54:44.070Z,8.45
2019-03-08T05:57:11.176Z,8.03
2019-03-08T05:59:38.474Z,2.90
2019-03-08T06:02:05.318Z,4.15
2019-03-08T06:04:32.347Z,5.65
2019-03-08T06:06:59.133Z,5.55
2019-03-08T06:09:26.140Z,8.23
2019-03-08T06:11:52.913Z,4.28
2019-03-08T06:14:20.209Z,4.80
2019-03-08T06:16:47.768Z,7.92
2019-03-08T06:19:14.699Z,5.50
2019-03-08T06:21:41.848Z,3.20
2019-03-08T06:24:08.881Z,3.98
2019-03-08T06:26:35.750Z,3.25
2019-03-08T06:29:03.014Z,3.02
2019-03-08T06:31:29.783Z,3.05
2019-03-08T06:33:56.955Z,3.52
2019-03-08T06:36:23.949Z,4.03
2019-03-08T06:38:50.998Z,6.28
2019-03-08T06:41:21.182Z,6.92
2019-03-08T06:43:48.291Z,6.42
2019-03-08T06:46:15.485Z,6.28
2019-03-08T06:48:42.296Z,4.40
2019-03-08T06:51:09.405Z,3.22
2019-03-08T06:53:36.861Z,4.78
2019-03-08T06:56:06.019Z,6.25
2019-03-08T06:58:37.555Z,4.83
2019-03-08T07:01:08.288Z,6.45
2019-03-08T07:03:35.155Z,5.70
2019-03-08T07:06:02.516Z,3.98
2019-03-08T07:08:29.617Z,4.35
2019-03-08T07:10:56.408Z,4.62
2019-03-08T07:13:23.567Z,1.82
2019-03-08T07:15:50.448Z,3.77
2019-03-08T07:18:17.381Z,3.33
2019-03-08T07:20:46.189Z,2.87
2019-03-08T07:23:32.001Z,3.83
2019-03-08T07:26:08.167Z,3.25
2019-03-08T07:28:53.806Z,3.72
2019-03-08T07:31:21.230Z,6.20
2019-03-08T07:33:54.114Z,4.67
2019-03-08T07:36:38.086Z,7.45
2019-03-08T07:39:33.543Z,3.08
2019-03-08T07:42:02.250Z,4.47
2019-03-08T07:44:33.839Z,3.67
2019-03-08T07:47:05.490Z,3.67
2019-03-08T07:49:49.988Z,3.92
2019-03-08T07:52:18.841Z,3.33
2019-03-08T07:55:06.906Z,2.92
2019-03-08T07:58:05.931Z,4.03
2019-03-08T08:00:42.795Z,4.05
2019-03-08T08:03:16.070Z,7.45
2019-03-08T08:06:03.220Z,3.77
2019-03-08T08:08:51.655Z,3.65
2019-03-08T08:11:15.340Z,4.28
2019-03-08T08:13:46.222Z,3.55
2019-03-08T08:16:18.447Z,3.20
2019-03-08T08:19:04.050Z,6.47
2019-03-08T08:21:42.958Z,5.15
2019-03-08T08:24:28.586Z,6.12
2019-03-08T08:26:55.654Z,3.85
2019-03-08T08:29:35.289Z,4.30
2019-03-08T08:32:05.606Z,2.22
2019-03-08T08:34:36.965Z,4.17
2019-03-08T08:37:14.007Z,8.53
2019-03-08T08:39:42.803Z,3.33
2019-03-08T08:42:20.835Z,3.27
2019-03-08T08:44:49.801Z,4.03
2019-03-08T08:47:34.051Z,5.42
2019-03-08T08:50:05.852Z,7.50
2019-03-08T08:52:40.987Z,5.87
2019-03-08T08:55:10.958Z,6.12
2019-03-08T08:57:39.954Z,6.10
2019-03-08T09:00:17.681Z,2.10
2019-03-08T09:02:56.008Z,2.00
2019-03-08T09:05:24.751Z,3.50
2019-03-08T09:07:53.549Z,3.98
2019-03-08T09:10:34.739Z,3.65
2019-03-08T09:13:10.531Z,5.00
2019-03-08T09:15:48.171Z,5.05
2019-03-08T09:18:20.005Z,3.92
2019-03-08T09:20:57.830Z,7.20
2019-03-08T09:23:51.332Z,2.50
2019-03-08T09:26:43.029Z,4.42
2019-03-08T09:29:09.874Z,4.60
2019-03-08T09:31:39.436Z,5.62
2019-03-08T09:34:08.259Z,8.43
2019-03-08T09:36:37.070Z,2.58
2019-03-08T09:39:10.656Z,3.77
2019-03-08T09:41:46.046Z,6.37
2019-03-08T09:44:18.129Z,5.42
2019-03-08T09:46:49.259Z,3.67
2019-03-08T09:49:32.805Z,3.55
2019-03-08T09:54:33.508Z,4.35
2019-03-08T09:57:11.759Z,3.72
2019-03-08T09:59:57.340Z,4.95
2019-03-08T10:02:26.225Z,7.72
2019-03-08T10:04:54.923Z,2.27
2019-03-08T10:07:26.886Z,3.70
2019-03-08T10:10:01.402Z,4.22
2019-03-08T10:12:33.670Z,2.85
2019-03-08T10:15:20.071Z,4.03
2019-03-08T10:17:49.262Z,2.20
2019-03-08T10:20:21.229Z,4.33
2019-03-08T10:23:03.858Z,3.52
2019-03-08T10:25:37.439Z,3.08
2019-03-08T10:28:09.586Z,4.12
2019-03-08T10:30:38.695Z,3.12
2019-03-08T10:33:10.304Z,3.33
2019-03-08T10:35:37.078Z,3.83
2019-03-08T10:38:07.885Z,2.98
2019-03-08T10:40:36.715Z,2.62
2019-03-08T10:43:15.423Z,6.03
2019-03-08T10:45:44.667Z,5.67
2019-03-08T10:48:13.449Z,3.25
2019-03-08T10:50:46.659Z,3.02
2019-03-08T10:53:18.231Z,3.95
2019-03-08T10:55:53.324Z,5.55
2019-03-08T10:58:36.819Z,3.98
2019-03-08T11:01:13.294Z,2.77
2019-03-08T11:03:46.458Z,2.75
2019-03-08T11:06:29.967Z,5.53
2019-03-08T11:08:58.859Z,2.98
2019-03-08T11:11:26.002Z,2.45
2019-03-08T11:13:52.890Z,2.65
2019-03-08T11:16:22.810Z,2.98
2019-03-08T11:18:49.911Z,4.92
2019-03-08T11:21:18.956Z,6.33
2019-03-08T11:23:47.695Z,3.08
2019-03-08T11:26:20.039Z,5.37
2019-03-08T11:29:06.171Z,5.35
2019-03-08T11:31:35.616Z,3.77
2019-03-08T11:34:07.243Z,4.12
2019-03-08T11:36:34.113Z,4.10
2019-03-08T11:39:03.072Z,3.60
2019-03-08T11:41:41.290Z,4.12
2019-03-08T11:44:12.769Z,5.17
2019-03-08T11:46:41.965Z,5.60
2019-03-08T11:49:15.234Z,6.15
2019-03-08T11:51:50.680Z,4.35
2019-03-08T11:54:40.379Z,3.42
2019-03-08T11:57:11.429Z,3.95
2019-03-08T11:59:47.046Z,4.08
2019-03-08T12:02:21.859Z,3.58
2019-03-08T12:04:52.273Z,4.15
2019-03-08T12:07:39.072Z,4.00
2019-03-08T12:10:12.046Z,2.83
2019-03-08T12:15:18.190Z,3.33
2019-03-08T12:18:02.872Z,3.80
2019-03-08T12:20:31.639Z,3.52
2019-03-08T12:23:21.830Z,6.92
2019-03-08T12:25:54.124Z,3.47
2019-03-08T12:28:24.285Z,3.95
2019-03-08T12:30:51.554Z,4.85
2019-03-08T12:33:20.252Z,1.72
2019-03-08T12:35:57.186Z,2.45
2019-03-08T12:38:28.474Z,2.83
2019-03-08T12:41:13.923Z,4.20
2019-03-08T12:43:59.735Z,3.83
2019-03-08T12:46:28.472Z,4.97
2019-03-08T12:48:57.236Z,3.00
2019-03-08T12:51:27.604Z,2.30
2019-03-08T12:53:54.462Z,4.65
2019-03-08T12:56:40.351Z,3.25
2019-03-08T12:59:17.893Z,3.58
2019-03-08T13:01:44.871Z,3.33
2019-03-08T13:04:13.614Z,2.75
2019-03-08T13:06:48.574Z,5.42
2019-03-08T13:09:33.198Z,4.50
2019-03-08T13:11:59.963Z,5.05
2019-03-08T13:14:27.467Z,2.30
2019-03-08T13:16:59.877Z,4.70
2019-03-08T13:19:43.402Z,2.65
2019-03-08T13:22:10.413Z,28.17
2019-03-08T13:24:37.432Z,21.02
2019-03-08T13:27:04.842Z,11.80
2019-03-08T13:29:32.003Z,5.58
2019-03-08T13:31:59.209Z,4.12
2019-03-08T13:34:29.299Z,2.95
2019-03-08T13:36:56.056Z,3.33
2019-03-08T13:39:22.919Z,5.33
2019-03-08T13:41:50.244Z,6.83
2019-03-08T13:44:17.551Z,2.55
2019-03-08T13:46:44.789Z,3.83
2019-03-08T13:49:11.718Z,3.77
2019-03-08T13:51:38.694Z,2.72
2019-03-08T13:54:05.662Z,4.60
2019-03-08T13:56:32.916Z,6.72
2019-03-08T13:58:59.666Z,7.00
2019-03-08T14:01:26.441Z,4.78
2019-03-08T14:03:53.813Z,3.87
2019-03-08T14:06:22.639Z,4.55
2019-03-08T14:08:51.734Z,5.40
2019-03-08T14:11:18.955Z,5.78
2019-03-08T14:13:45.889Z,4.17
2019-03-08T14:16:12.878Z,5.65
2019-03-08T14:18:39.985Z,4.42
2019-03-08T14:21:07.226Z,4.80
2019-03-08T14:23:37.419Z,5.22
2019-03-08T14:26:04.391Z,4.72
2019-03-08T14:28:31.415Z,4.45
2019-03-08T14:30:59.667Z,4.60
2019-03-08T14:33:27.039Z,3.02
2019-03-08T14:35:55.941Z,3.25
2019-03-08T14:38:23.109Z,4.97
2019-03-08T14:40:57.625Z,4.22
2019-03-08T14:43:26.362Z,5.15
2019-03-08T14:45:55.416Z,5.28
2019-03-08T14:48:22.286Z,4.78
2019-03-08T14:50:49.042Z,3.02
2019-03-08T14:53:16.220Z,4.47
2019-03-08T14:55:43.120Z,3.50
2019-03-08T14:58:10.010Z,2.40
2019-03-08T15:00:36.919Z,4.50
2019-03-08T15:03:04.232Z,4.10
2019-03-08T15:05:31.099Z,2.98
2019-03-08T15:08:00.458Z,4.17
2019-03-08T15:10:27.429Z,4.03
2019-03-08T15:12:54.758Z,3.50
2019-03-08T15:15:22.269Z,4.03
2019-03-08T15:17:53.023Z,4.80
2019-03-08T15:20:19.207Z,5.97
2019-03-08T15:22:46.783Z,5.45
2019-03-08T15:25:15.334Z,2.95
2019-03-08T15:27:43.495Z,6.15
2019-03-08T15:30:19.075Z,3.77
2019-03-08T15:32:46.336Z,3.22
2019-03-08T15:35:15.331Z,3.92
2019-03-08T15:37:44.501Z,5.40
2019-03-08T15:40:22.310Z,3.15
2019-03-08T15:42:49.768Z,2.80
2019-03-08T15:45:20.002Z,7.03
2019-03-08T15:50:19.676Z,4.55
2019-03-08T15:52:46.552Z,2.47
2019-03-08T15:55:13.990Z,7.78
2019-03-08T15:57:41.439Z,4.03
2019-03-08T16:00:22.844Z,8.13
2019-03-08T16:02:50.312Z,4.08
2019-03-08T16:05:23.901Z,4.58
2019-03-08T16:07:50.150Z,6.62
2019-03-08T16:10:19.371Z,7.03
2019-03-08T16:12:46.947Z,4.35
2019-03-08T16:15:14.937Z,7.00
2019-03-08T16:17:42.498Z,5.97
2019-03-08T16:20:19.379Z,5.25
2019-03-08T16:22:46.505Z,4.10
2019-03-08T16:25:16.743Z,4.53
2019-03-08T16:27:43.909Z,6.90
2019-03-08T16:30:55.750Z,4.22
2019-03-08T16:36:41.785Z,3.25
2019-03-08T16:39:11.133Z,5.97
2019-03-08T16:41:56.943Z,4.15
2019-03-08T16:44:25.745Z,4.80
2019-03-08T16:47:00.863Z,5.95
2019-03-08T16:49:35.915Z,4.58
2019-03-08T16:52:07.568Z,6.83
2019-03-08T16:54:37.589Z,8.23
2019-03-08T16:57:26.504Z,5.53
2019-03-08T16:59:58.624Z,5.20
2019-03-08T17:02:44.985Z,4.67
2019-03-08T17:05:15.293Z,6.08
2019-03-08T17:07:44.518Z,5.45
2019-03-08T17:10:30.661Z,8.38
2019-03-08T17:13:11.479Z,5.40
2019-03-08T17:15:49.548Z,6.42
2019-03-08T17:18:16.405Z,5.70
2019-03-08T17:21:01.385Z,4.65
2019-03-08T17:23:28.243Z,5.87
2019-03-08T17:26:16.061Z,7.05
2019-03-08T17:28:51.404Z,4.62
2019-03-08T17:31:28.418Z,5.83
2019-03-08T17:33:57.778Z,5.30
2019-03-08T17:36:31.224Z,5.08
2019-03-08T17:39:00.098Z,5.70
2019-03-08T17:41:32.620Z,5.72
2019-03-08T17:44:16.447Z,9.33
2019-03-08T17:47:03.434Z,4.75
2019-03-08T17:49:45.373Z,7.45
2019-03-08T17:52:15.843Z,4.80
2019-03-08T17:54:58.415Z,5.53
2019-03-08T17:57:37.966Z,5.17
2019-03-08T18:00:28.904Z,7.72
2019-03-08T18:03:16.287Z,8.43
2019-03-08T18:05:49.036Z,9.05
2019-03-08T18:08:22.108Z,7.03
2019-03-08T18:13:26.056Z,10.95
2019-03-08T18:16:04.561Z,9.18
2019-03-08T18:18:37.549Z,7.85
2019-03-08T18:21:23.390Z,6.65
2019-03-08T18:23:52.232Z,6.95
2019-03-08T18:26:31.056Z,8.08
2019-03-08T18:29:18.030Z,12.75
2019-03-08T18:31:56.822Z,12.63
2019-03-08T18:34:28.807Z,13.55
2019-03-08T18:36:57.632Z,14.73
2019-03-08T18:39:42.823Z,12.03
2019-03-08T18:42:14.583Z,14.18
2019-03-08T18:44:41.468Z,10.60
2019-03-08T18:47:23.525Z,10.10
2019-03-08T18:49:58.559Z,9.78
2019-03-08T18:52:27.510Z,15.23
2019-03-08T18:54:54.294Z,16.00
2019-03-08T18:57:26.021Z,16.23
2019-03-08T18:59:55.128Z,18.40
2019-03-08T19:02:25.980Z,21.05
2019-03-08T19:04:53.152Z,17.75
2019-03-08T19:07:20.088Z,22.17
2019-03-08T19:09:48.801Z,21.52
2019-03-08T19:12:22.161Z,18.87
2019-03-08T19:14:51.581Z,23.35
2019-03-08T19:17:18.469Z,15.28
2019-03-08T19:19:47.160Z,21.65
2019-03-08T19:22:16.044Z,15.63
2019-03-08T19:24:50.969Z,16.85
2019-03-08T19:27:23.859Z,20.45
2019-03-08T19:32:48.832Z,14.55
2019-03-08T19:35:27.890Z,15.80
2019-03-08T19:38:00.899Z,11.12
2019-03-08T19:40:29.981Z,11.28
2019-03-08T19:43:14.967Z,7.47
2019-03-08T19:45:42.136Z,11.12
2019-03-08T19:48:26.298Z,8.15
2019-03-08T19:50:55.464Z,8.50
2019-03-08T19:53:41.470Z,7.40
2019-03-08T19:56:10.229Z,6.05
2019-03-08T19:58:49.730Z,7.90
2019-03-08T20:01:24.967Z,9.28
2019-03-08T20:03:58.776Z,10.90
2019-03-08T20:06:40.281Z,7.70
2019-03-08T20:09:10.971Z,8.43
2019-03-08T20:11:38.268Z,7.37
2019-03-08T20:14:23.295Z,9.10
2019-03-08T20:17:08.977Z,10.15
2019-03-08T20:19:45.346Z,7.97
2019-03-08T20:22:14.162Z,10.70
2019-03-08T20:24:43.199Z,5.95
2019-03-08T20:27:29.017Z,9.58
2019-03-08T20:30:09.776Z,7.45
2019-03-08T20:32:42.165Z,9.05
2019-03-08T20:35:28.867Z,4.87
2019-03-08T20:38:14.277Z,8.05
2019-03-08T20:40:50.141Z,7.85
2019-03-08T20:43:19.187Z,7.65
2019-03-08T20:45:51.137Z,9.80
2019-03-08T20:48:21.935Z,8.08
2019-03-08T20:50:49.028Z,10.78
2019-03-08T20:53:16.328Z,9.15
2019-03-08T20:55:47.609Z,7.03
2019-03-08T20:58:14.673Z,8.93
2019-03-08T21:00:42.230Z,10.20
2019-03-08T21:03:09.100Z,7.92
2019-03-08T21:05:36.824Z,6.33
2019-03-08T21:08:04.259Z,7.53
2019-03-08T21:10:31.576Z,7.58
2019-03-08T21:12:59.209Z,6.70
2019-03-08T21:15:26.323Z,7.45
2019-03-08T21:17:55.973Z,9.80
2019-03-08T21:20:23.430Z,10.03
2019-03-08T21:22:50.245Z,9.78
2019-03-08T21:25:17.512Z,8.00
2019-03-08T21:27:44.690Z,9.58
2019-03-08T21:30:17.829Z,8.38
2019-03-08T21:32:45.062Z,11.68
2019-03-08T21:35:12.869Z,9.73
2019-03-08T21:37:40.521Z,9.95
2019-03-08T21:40:11.124Z,7.08
2019-03-08T21:42:37.989Z,7.85
2019-03-08T21:45:10.342Z,8.38
2019-03-08T21:47:38.232Z,9.05
2019-03-08T21:50:12.549Z,8.15
2019-03-08T21:52:39.734Z,8.80
2019-03-08T21:55:07.540Z,9.85
2019-03-08T21:57:34.347Z,9.68
2019-03-08T22:00:01.793Z,8.80
2019-03-08T22:02:28.568Z,12.03
2019-03-08T22:04:57.016Z,7.87
2019-03-08T22:07:24.124Z,6.72
2019-03-08T22:10:09.694Z,8.85
2019-03-08T22:12:36.546Z,8.53
2019-03-08T22:15:06.461Z,6.53
2019-03-08T22:17:33.463Z,11.00
2019-03-08T22:20:00.380Z,6.87
2019-03-08T22:22:27.158Z,7.05
2019-03-08T22:24:54.690Z,7.28
2019-03-08T22:27:21.446Z,10.55
2019-03-08T22:29:48.888Z,7.60
2019-03-08T22:32:15.905Z,6.72
2019-03-08T22:34:42.819Z,7.20
2019-03-08T22:37:09.720Z,8.98
2019-03-08T22:39:36.977Z,11.70
2019-03-08T22:42:04.226Z,10.40
2019-03-08T22:44:31.081Z,7.85
2019-03-08T22:46:58.799Z,6.42
2019-03-08T22:49:25.669Z,7.33
2019-03-08T22:51:52.478Z,9.35
2019-03-08T22:54:19.273Z,5.22
2019-03-08T22:56:46.099Z,11.12
2019-03-08T22:59:12.887Z,8.65
2019-03-08T23:01:48.315Z,7.33
2019-03-08T23:04:15.669Z,6.70
2019-03-08T23:06:42.690Z,7.78
2019-03-08T23:09:11.542Z,8.90
2019-03-08T23:11:40.291Z,11.38
2019-03-08T23:14:07.412Z,9.15
2019-03-08T23:16:34.241Z,9.70
2019-03-08T23:19:01.202Z,7.80
2019-03-08T23:21:28.216Z,8.55
2019-03-08T23:23:59.565Z,5.00
2019-03-08T23:26:32.517Z,6.17
2019-03-08T23:29:10.375Z,5.40
2019-03-08T23:31:55.967Z,7.12
2019-03-08T23:34:25.802Z,6.20
2019-03-08T23:36:52.660Z,6.20
2019-03-08T23:39:19.527Z,7.17
2019-03-08T23:41:47.454Z,7.72
2019-03-08T23:44:14.552Z,8.25
2019-03-08T23:46:41.804Z,5.45
2019-03-08T23:49:09.158Z,5.78
2019-03-08T23:51:36.822Z,7.62
2019-03-08T23:54:03.878Z,6.95
2019-03-08T23:56:31.490Z,6.85
2019-03-08T23:58:58.711Z,7.45
